sensor_id;sensor_type;location;lat;lon;timestamp;P1;durP1;ratioP1;P2;durP2;ratioP2
10497;SDS011;5296;51.060;13.750;2023-08-07T00:01:03;2.28;;;1.92;;
10497;SDS011;5296;51.060;13.750;2023-08-07T00:06:05;2.22;;;1.67;;
10497;SDS011;5296;51.060;13.750;2023-08-07T00:11:07;1.80;;;1.70;;
10497;SDS011;5296;51.060;13.750;2023-08-07T00:16:09;2.00;;;1.80;;
10497;SDS011;5296;51.060;13.750;2023-08-07T00:21:12;1.90;;;1.80;;
10497;SDS011;5296;51.060;13.750;2023-08-07T00:26:13;2.00;;;1.80;;
10497;SDS011;5296;51.060;13.750;2023-08-07T00:31:15;2.15;;;1.80;;
10497;SDS011;5296;51.060;13.750;2023-08-07T00:36:17;2.15;;;1.83;;
10497;SDS011;5296;51.060;13.750;2023-08-07T00:41:19;3.20;;;1.55;;
10497;SDS011;5296;51.060;13.750;2023-08-07T00:46:21;2.88;;;1.67;;
10497;SDS011;5296;51.060;13.750;2023-08-07T00:51:23;2.83;;;1.80;;
10497;SDS011;5296;51.060;13.750;2023-08-07T00:56:25;2.65;;;2.05;;
10497;SDS011;5296;51.060;13.750;2023-08-07T01:01:27;2.20;;;1.83;;
10497;SDS011;5296;51.060;13.750;2023-08-07T01:06:30;2.15;;;2.05;;
10497;SDS011;5296;51.060;13.750;2023-08-07T01:11:50;2.28;;;2.13;;
10497;SDS011;5296;51.060;13.750;2023-08-07T01:17:17;1.95;;;1.85;;
10497;SDS011;5296;51.060;13.750;2023-08-07T01:22:18;2.80;;;2.15;;
10497;SDS011;5296;51.060;13.750;2023-08-07T01:27:41;2.00;;;1.90;;
10497;SDS011;5296;51.060;13.750;2023-08-07T01:38:18;2.58;;;1.90;;
10497;SDS011;5296;51.060;13.750;2023-08-07T01:43:22;2.22;;;2.03;;
10497;SDS011;5296;51.060;13.750;2023-08-07T01:48:24;2.35;;;2.08;;
10497;SDS011;5296;51.060;13.750;2023-08-07T01:53:27;2.42;;;2.08;;
10497;SDS011;5296;51.060;13.750;2023-08-07T01:58:29;1.77;;;1.67;;
10497;SDS011;5296;51.060;13.750;2023-08-07T02:03:31;2.00;;;1.90;;
10497;SDS011;5296;51.060;13.750;2023-08-07T02:08:33;3.10;;;2.47;;
10497;SDS011;5296;51.060;13.750;2023-08-07T02:13:37;2.40;;;2.03;;
10497;SDS011;5296;51.060;13.750;2023-08-07T02:18:38;2.60;;;2.40;;
10497;SDS011;5296;51.060;13.750;2023-08-07T02:23:40;2.65;;;2.45;;
10497;SDS011;5296;51.060;13.750;2023-08-07T02:28:42;2.75;;;2.30;;
10497;SDS011;5296;51.060;13.750;2023-08-07T02:33:44;3.28;;;2.55;;
10497;SDS011;5296;51.060;13.750;2023-08-07T02:38:45;3.60;;;2.72;;
10497;SDS011;5296;51.060;13.750;2023-08-07T02:43:47;2.50;;;2.30;;
10497;SDS011;5296;51.060;13.750;2023-08-07T02:48:49;3.33;;;2.50;;
10497;SDS011;5296;51.060;13.750;2023-08-07T02:53:51;6.32;;;2.53;;
10497;SDS011;5296;51.060;13.750;2023-08-07T02:58:52;4.00;;;3.05;;
10497;SDS011;5296;51.060;13.750;2023-08-07T03:03:54;3.53;;;3.22;;
10497;SDS011;5296;51.060;13.750;2023-08-07T03:08:56;3.22;;;2.92;;
10497;SDS011;5296;51.060;13.750;2023-08-07T03:13:57;3.80;;;2.47;;
10497;SDS011;5296;51.060;13.750;2023-08-07T03:18:59;4.65;;;2.20;;
10497;SDS011;5296;51.060;13.750;2023-08-07T03:24:01;2.75;;;2.08;;
10497;SDS011;5296;51.060;13.750;2023-08-07T03:29:03;3.28;;;2.00;;
10497;SDS011;5296;51.060;13.750;2023-08-07T03:34:05;1.83;;;1.73;;
10497;SDS011;5296;51.060;13.750;2023-08-07T03:39:07;4.22;;;1.70;;
10497;SDS011;5296;51.060;13.750;2023-08-07T03:44:13;4.13;;;2.10;;
10497;SDS011;5296;51.060;13.750;2023-08-07T03:49:15;2.58;;;1.92;;
10497;SDS011;5296;51.060;13.750;2023-08-07T03:54:17;2.47;;;2.17;;
10497;SDS011;5296;51.060;13.750;2023-08-07T03:59:18;2.72;;;1.80;;
10497;SDS011;5296;51.060;13.750;2023-08-07T04:04:20;2.15;;;1.88;;
10497;SDS011;5296;51.060;13.750;2023-08-07T04:09:22;2.28;;;2.00;;
10497;SDS011;5296;51.060;13.750;2023-08-07T04:14:24;2.72;;;2.10;;
10497;SDS011;5296;51.060;13.750;2023-08-07T04:19:26;4.95;;;2.47;;
10497;SDS011;5296;51.060;13.750;2023-08-07T04:24:28;2.83;;;2.28;;
10497;SDS011;5296;51.060;13.750;2023-08-07T04:29:29;3.75;;;2.83;;
10497;SDS011;5296;51.060;13.750;2023-08-07T04:34:31;3.72;;;2.88;;
10497;SDS011;5296;51.060;13.750;2023-08-07T04:39:33;3.50;;;3.00;;
10497;SDS011;5296;51.060;13.750;2023-08-07T04:44:34;3.47;;;3.17;;
10497;SDS011;5296;51.060;13.750;2023-08-07T04:49:36;4.28;;;3.45;;
10497;SDS011;5296;51.060;13.750;2023-08-07T04:54:38;3.90;;;3.47;;
10497;SDS011;5296;51.060;13.750;2023-08-07T04:59:39;4.82;;;4.30;;
10497;SDS011;5296;51.060;13.750;2023-08-07T05:04:41;6.22;;;4.80;;
10497;SDS011;5296;51.060;13.750;2023-08-07T05:09:43;4.95;;;4.32;;
10497;SDS011;5296;51.060;13.750;2023-08-07T05:14:44;4.43;;;4.03;;
10497;SDS011;5296;51.060;13.750;2023-08-07T05:19:46;4.43;;;4.00;;
10497;SDS011;5296;51.060;13.750;2023-08-07T05:24:48;6.57;;;4.00;;
10497;SDS011;5296;51.060;13.750;2023-08-07T05:29:50;5.00;;;3.38;;
10497;SDS011;5296;51.060;13.750;2023-08-07T05:34:51;5.00;;;3.47;;
10497;SDS011;5296;51.060;13.750;2023-08-07T05:39:53;4.30;;;3.70;;
10497;SDS011;5296;51.060;13.750;2023-08-07T05:44:55;3.90;;;3.28;;
10497;SDS011;5296;51.060;13.750;2023-08-07T05:49:56;5.22;;;3.03;;
10497;SDS011;5296;51.060;13.750;2023-08-07T05:54:58;3.95;;;3.10;;
10497;SDS011;5296;51.060;13.750;2023-08-07T06:00:00;3.47;;;2.88;;
10497;SDS011;5296;51.060;13.750;2023-08-07T06:05:12;3.03;;;2.72;;
10497;SDS011;5296;51.060;13.750;2023-08-07T06:10:16;4.32;;;2.65;;
10497;SDS011;5296;51.060;13.750;2023-08-07T06:15:18;3.60;;;2.47;;
10497;SDS011;5296;51.060;13.750;2023-08-07T06:20:20;3.90;;;2.70;;
10497;SDS011;5296;51.060;13.750;2023-08-07T06:25:22;3.05;;;2.72;;
10497;SDS011;5296;51.060;13.750;2023-08-07T06:30:24;2.38;;;2.17;;
10497;SDS011;5296;51.060;13.750;2023-08-07T06:35:26;3.95;;;2.42;;
10497;SDS011;5296;51.060;13.750;2023-08-07T06:40:27;3.25;;;1.90;;
10497;SDS011;5296;51.060;13.750;2023-08-07T06:45:29;2.22;;;2.13;;
10497;SDS011;5296;51.060;13.750;2023-08-07T06:50:31;2.75;;;2.00;;
10497;SDS011;5296;51.060;13.750;2023-08-07T06:55:32;2.30;;;2.00;;
10497;SDS011;5296;51.060;13.750;2023-08-07T07:00:35;2.30;;;2.10;;
10497;SDS011;5296;51.060;13.750;2023-08-07T07:05:37;2.63;;;2.00;;
10497;SDS011;5296;51.060;13.750;2023-08-07T07:10:38;2.95;;;2.03;;
10497;SDS011;5296;51.060;13.750;2023-08-07T07:15:40;3.92;;;1.90;;
10497;SDS011;5296;51.060;13.750;2023-08-07T07:20:42;2.65;;;2.03;;
10497;SDS011;5296;51.060;13.750;2023-08-07T07:25:44;2.65;;;2.00;;
10497;SDS011;5296;51.060;13.750;2023-08-07T07:30:45;2.00;;;1.80;;
10497;SDS011;5296;51.060;13.750;2023-08-07T07:35:47;1.85;;;1.50;;
10497;SDS011;5296;51.060;13.750;2023-08-07T07:40:49;2.13;;;1.92;;
10497;SDS011;5296;51.060;13.750;2023-08-07T07:45:51;2.17;;;1.65;;
10497;SDS011;5296;51.060;13.750;2023-08-07T07:50:57;2.05;;;1.73;;
10497;SDS011;5296;51.060;13.750;2023-08-07T07:56:00;2.63;;;1.77;;
10497;SDS011;5296;51.060;13.750;2023-08-07T08:01:02;1.85;;;1.60;;
10497;SDS011;5296;51.060;13.750;2023-08-07T08:06:04;3.40;;;1.70;;
10497;SDS011;5296;51.060;13.750;2023-08-07T08:11:05;3.20;;;1.58;;
10497;SDS011;5296;51.060;13.750;2023-08-07T08:16:07;1.40;;;1.30;;
10497;SDS011;5296;51.060;13.750;2023-08-07T08:21:09;1.90;;;1.48;;
10497;SDS011;5296;51.060;13.750;2023-08-07T08:26:10;1.92;;;1.40;;
10497;SDS011;5296;51.060;13.750;2023-08-07T08:31:12;1.73;;;1.30;;
10497;SDS011;5296;51.060;13.750;2023-08-07T08:36:14;2.25;;;1.40;;
10497;SDS011;5296;51.060;13.750;2023-08-07T08:41:15;1.98;;;1.48;;
10497;SDS011;5296;51.060;13.750;2023-08-07T08:46:17;1.70;;;1.55;;
10497;SDS011;5296;51.060;13.750;2023-08-07T08:51:21;2.00;;;1.50;;
10497;SDS011;5296;51.060;13.750;2023-08-07T08:56:23;3.90;;;1.60;;
10497;SDS011;5296;51.060;13.750;2023-08-07T09:01:25;1.48;;;1.38;;
10497;SDS011;5296;51.060;13.750;2023-08-07T09:06:28;1.55;;;1.30;;
10497;SDS011;5296;51.060;13.750;2023-08-07T09:11:33;2.72;;;1.30;;
10497;SDS011;5296;51.060;13.750;2023-08-07T09:16:35;1.30;;;1.20;;
10497;SDS011;5296;51.060;13.750;2023-08-07T09:21:37;4.43;;;1.30;;
10497;SDS011;5296;51.060;13.750;2023-08-07T09:26:41;1.65;;;1.42;;
10497;SDS011;5296;51.060;13.750;2023-08-07T09:31:45;4.25;;;1.45;;
10497;SDS011;5296;51.060;13.750;2023-08-07T09:36:47;1.40;;;1.30;;
10497;SDS011;5296;51.060;13.750;2023-08-07T09:41:50;1.38;;;1.13;;
10497;SDS011;5296;51.060;13.750;2023-08-07T09:46:52;1.48;;;1.25;;
10497;SDS011;5296;51.060;13.750;2023-08-07T09:51:55;4.72;;;1.40;;
10497;SDS011;5296;51.060;13.750;2023-08-07T09:56:56;2.33;;;1.02;;
10497;SDS011;5296;51.060;13.750;2023-08-07T10:02:00;1.40;;;1.13;;
10497;SDS011;5296;51.060;13.750;2023-08-07T10:07:03;14.70;;;2.80;;
10497;SDS011;5296;51.060;13.750;2023-08-07T10:12:05;1.30;;;1.10;;
10497;SDS011;5296;51.060;13.750;2023-08-07T10:17:07;1.10;;;1.00;;
10497;SDS011;5296;51.060;13.750;2023-08-07T10:22:09;1.52;;;1.05;;
10497;SDS011;5296;51.060;13.750;2023-08-07T10:27:11;3.20;;;1.20;;
10497;SDS011;5296;51.060;13.750;2023-08-07T10:32:14;3.42;;;1.27;;
10497;SDS011;5296;51.060;13.750;2023-08-07T10:43:00;1.75;;;1.27;;
10497;SDS011;5296;51.060;13.750;2023-08-07T10:48:17;3.75;;;1.40;;
10497;SDS011;5296;51.060;13.750;2023-08-07T10:53:20;1.85;;;1.30;;
10497;SDS011;5296;51.060;13.750;2023-08-07T10:58:29;1.00;;;1.00;;
10497;SDS011;5296;51.060;13.750;2023-08-07T11:03:35;1.40;;;1.30;;
10497;SDS011;5296;51.060;13.750;2023-08-07T11:08:37;2.28;;;1.20;;
10497;SDS011;5296;51.060;13.750;2023-08-07T11:13:39;1.80;;;1.30;;
10497;SDS011;5296;51.060;13.750;2023-08-07T11:18:42;2.15;;;1.20;;
10497;SDS011;5296;51.060;13.750;2023-08-07T11:23:44;1.40;;;1.30;;
10497;SDS011;5296;51.060;13.750;2023-08-07T11:28:47;1.38;;;1.27;;
10497;SDS011;5296;51.060;13.750;2023-08-07T11:33:55;1.58;;;1.08;;
10497;SDS011;5296;51.060;13.750;2023-08-07T11:38:58;1.00;;;1.00;;
10497;SDS011;5296;51.060;13.750;2023-08-07T11:44:00;1.63;;;1.48;;
10497;SDS011;5296;51.060;13.750;2023-08-07T11:49:02;1.60;;;1.33;;
10497;SDS011;5296;51.060;13.750;2023-08-07T11:54:05;2.65;;;1.40;;
10497;SDS011;5296;51.060;13.750;2023-08-07T11:59:07;1.48;;;1.38;;
10497;SDS011;5296;51.060;13.750;2023-08-07T12:04:09;1.73;;;1.40;;
10497;SDS011;5296;51.060;13.750;2023-08-07T12:09:11;1.50;;;1.33;;
10497;SDS011;5296;51.060;13.750;2023-08-07T12:14:16;2.67;;;1.33;;
10497;SDS011;5296;51.060;13.750;2023-08-07T12:19:18;1.90;;;1.10;;
10497;SDS011;5296;51.060;13.750;2023-08-07T12:24:20;2.75;;;1.33;;
10497;SDS011;5296;51.060;13.750;2023-08-07T12:29:22;1.60;;;1.40;;
10497;SDS011;5296;51.060;13.750;2023-08-07T12:34:25;0.88;;;0.88;;
10497;SDS011;5296;51.060;13.750;2023-08-07T12:39:30;1.05;;;0.90;;
10497;SDS011;5296;51.060;13.750;2023-08-07T12:44:34;0.77;;;0.75;;
10497;SDS011;5296;51.060;13.750;2023-08-07T12:49:36;1.05;;;0.88;;
10497;SDS011;5296;51.060;13.750;2023-08-07T12:54:37;1.75;;;1.08;;
10497;SDS011;5296;51.060;13.750;2023-08-07T12:59:39;0.90;;;0.90;;
10497;SDS011;5296;51.060;13.750;2023-08-07T13:04:41;2.35;;;1.05;;
10497;SDS011;5296;51.060;13.750;2023-08-07T13:09:42;2.10;;;1.20;;
10497;SDS011;5296;51.060;13.750;2023-08-07T13:14:44;0.90;;;0.90;;
10497;SDS011;5296;51.060;13.750;2023-08-07T13:19:46;0.70;;;0.70;;
10497;SDS011;5296;51.060;13.750;2023-08-07T13:24:47;1.67;;;1.15;;
10497;SDS011;5296;51.060;13.750;2023-08-07T13:29:49;2.50;;;1.10;;
10497;SDS011;5296;51.060;13.750;2023-08-07T13:34:51;1.15;;;0.88;;
10497;SDS011;5296;51.060;13.750;2023-08-07T13:39:52;4.03;;;1.08;;
10497;SDS011;5296;51.060;13.750;2023-08-07T13:44:55;0.70;;;0.70;;
10497;SDS011;5296;51.060;13.750;2023-08-07T13:49:57;0.65;;;0.60;;
10497;SDS011;5296;51.060;13.750;2023-08-07T13:54:59;0.70;;;0.70;;
10497;SDS011;5296;51.060;13.750;2023-08-07T14:00:01;1.77;;;0.70;;
10497;SDS011;5296;51.060;13.750;2023-08-07T14:05:05;2.30;;;1.00;;
10497;SDS011;5296;51.060;13.750;2023-08-07T14:10:07;0.80;;;0.80;;
10497;SDS011;5296;51.060;13.750;2023-08-07T14:15:09;3.88;;;1.70;;
10497;SDS011;5296;51.060;13.750;2023-08-07T14:20:12;2.20;;;1.10;;
10497;SDS011;5296;51.060;13.750;2023-08-07T14:25:14;1.70;;;1.25;;
10497;SDS011;5296;51.060;13.750;2023-08-07T14:30:15;1.23;;;1.00;;
10497;SDS011;5296;51.060;13.750;2023-08-07T14:35:17;3.53;;;1.13;;
10497;SDS011;5296;51.060;13.750;2023-08-07T14:40:19;1.55;;;0.80;;
10497;SDS011;5296;51.060;13.750;2023-08-07T14:45:21;1.27;;;1.08;;
10497;SDS011;5296;51.060;13.750;2023-08-07T14:50:24;1.42;;;1.15;;
10497;SDS011;5296;51.060;13.750;2023-08-07T14:55:25;1.40;;;0.90;;
10497;SDS011;5296;51.060;13.750;2023-08-07T15:00:27;0.70;;;0.70;;
10497;SDS011;5296;51.060;13.750;2023-08-07T15:05:29;2.72;;;1.15;;
10497;SDS011;5296;51.060;13.750;2023-08-07T15:10:30;0.75;;;0.75;;
10497;SDS011;5296;51.060;13.750;2023-08-07T15:15:32;1.52;;;0.90;;
10497;SDS011;5296;51.060;13.750;2023-08-07T15:20:34;1.85;;;0.88;;
10497;SDS011;5296;51.060;13.750;2023-08-07T15:25:37;0.75;;;0.75;;
10497;SDS011;5296;51.060;13.750;2023-08-07T15:30:39;3.97;;;0.90;;
10497;SDS011;5296;51.060;13.750;2023-08-07T15:35:40;3.25;;;1.00;;
10497;SDS011;5296;51.060;13.750;2023-08-07T15:40:42;2.25;;;0.98;;
10497;SDS011;5296;51.060;13.750;2023-08-07T15:45:44;1.60;;;1.00;;
10497;SDS011;5296;51.060;13.750;2023-08-07T15:50:46;1.30;;;1.10;;
10497;SDS011;5296;51.060;13.750;2023-08-07T15:55:49;1.48;;;1.00;;
10497;SDS011;5296;51.060;13.750;2023-08-07T16:00:51;1.15;;;1.05;;
10497;SDS011;5296;51.060;13.750;2023-08-07T16:05:53;2.45;;;1.42;;
10497;SDS011;5296;51.060;13.750;2023-08-07T16:10:54;4.03;;;1.00;;
10497;SDS011;5296;51.060;13.750;2023-08-07T16:15:56;2.47;;;1.20;;
10497;SDS011;5296;51.060;13.750;2023-08-07T16:20:58;2.00;;;1.10;;
10497;SDS011;5296;51.060;13.750;2023-08-07T16:25:59;2.20;;;0.93;;
10497;SDS011;5296;51.060;13.750;2023-08-07T16:31:01;2.17;;;1.20;;
10497;SDS011;5296;51.060;13.750;2023-08-07T16:36:03;1.48;;;1.10;;
10497;SDS011;5296;51.060;13.750;2023-08-07T16:41:05;1.52;;;0.80;;
10497;SDS011;5296;51.060;13.750;2023-08-07T16:46:06;2.58;;;1.30;;
10497;SDS011;5296;51.060;13.750;2023-08-07T16:51:08;3.80;;;1.40;;
10497;SDS011;5296;51.060;13.750;2023-08-07T16:56:16;3.15;;;1.00;;
10497;SDS011;5296;51.060;13.750;2023-08-07T17:01:18;1.25;;;1.10;;
10497;SDS011;5296;51.060;13.750;2023-08-07T17:06:21;2.55;;;1.40;;
10497;SDS011;5296;51.060;13.750;2023-08-07T17:11:22;1.95;;;1.15;;
10497;SDS011;5296;51.060;13.750;2023-08-07T17:16:25;2.15;;;1.33;;
10497;SDS011;5296;51.060;13.750;2023-08-07T17:21:27;1.25;;;1.15;;
10497;SDS011;5296;51.060;13.750;2023-08-07T17:26:29;1.83;;;1.23;;
10497;SDS011;5296;51.060;13.750;2023-08-07T17:31:31;1.55;;;1.45;;
10497;SDS011;5296;51.060;13.750;2023-08-07T17:36:32;2.08;;;1.40;;
10497;SDS011;5296;51.060;13.750;2023-08-07T17:41:34;1.85;;;1.20;;
10497;SDS011;5296;51.060;13.750;2023-08-07T17:46:36;1.40;;;1.20;;
10497;SDS011;5296;51.060;13.750;2023-08-07T17:51:37;3.88;;;1.30;;
10497;SDS011;5296;51.060;13.750;2023-08-07T17:56:39;2.55;;;1.30;;
10497;SDS011;5296;51.060;13.750;2023-08-07T18:01:41;3.22;;;1.60;;
10497;SDS011;5296;51.060;13.750;2023-08-07T18:06:42;4.75;;;1.58;;
10497;SDS011;5296;51.060;13.750;2023-08-07T18:11:44;3.50;;;1.92;;
10497;SDS011;5296;51.060;13.750;2023-08-07T18:16:46;3.30;;;1.92;;
10497;SDS011;5296;51.060;13.750;2023-08-07T18:21:48;4.57;;;1.95;;
10497;SDS011;5296;51.060;13.750;2023-08-07T18:26:50;2.65;;;1.63;;
10497;SDS011;5296;51.060;13.750;2023-08-07T18:31:52;2.60;;;1.65;;
10497;SDS011;5296;51.060;13.750;2023-08-07T18:36:54;1.83;;;1.40;;
10497;SDS011;5296;51.060;13.750;2023-08-07T18:41:56;3.30;;;1.63;;
10497;SDS011;5296;51.060;13.750;2023-08-07T18:46:58;3.47;;;1.75;;
10497;SDS011;5296;51.060;13.750;2023-08-07T18:52:00;3.63;;;1.63;;
10497;SDS011;5296;51.060;13.750;2023-08-07T18:57:05;3.42;;;2.00;;
10497;SDS011;5296;51.060;13.750;2023-08-07T19:02:07;2.47;;;1.70;;
10497;SDS011;5296;51.060;13.750;2023-08-07T19:07:09;2.20;;;1.80;;
10497;SDS011;5296;51.060;13.750;2023-08-07T19:12:11;3.42;;;2.00;;
10497;SDS011;5296;51.060;13.750;2023-08-07T19:17:13;2.45;;;1.75;;
10497;SDS011;5296;51.060;13.750;2023-08-07T19:22:14;5.05;;;2.40;;
10497;SDS011;5296;51.060;13.750;2023-08-07T19:27:16;5.25;;;2.00;;
10497;SDS011;5296;51.060;13.750;2023-08-07T19:32:18;3.67;;;2.00;;
10497;SDS011;5296;51.060;13.750;2023-08-07T19:37:20;3.75;;;2.28;;
10497;SDS011;5296;51.060;13.750;2023-08-07T19:42:23;4.38;;;2.40;;
10497;SDS011;5296;51.060;13.750;2023-08-07T19:47:24;2.83;;;2.30;;
10497;SDS011;5296;51.060;13.750;2023-08-07T19:52:37;5.97;;;2.75;;
10497;SDS011;5296;51.060;13.750;2023-08-07T19:57:38;4.63;;;2.65;;
10497;SDS011;5296;51.060;13.750;2023-08-07T20:02:40;4.90;;;2.58;;
10497;SDS011;5296;51.060;13.750;2023-08-07T20:07:42;5.15;;;2.38;;
10497;SDS011;5296;51.060;13.750;2023-08-07T20:12:44;4.70;;;2.47;;
10497;SDS011;5296;51.060;13.750;2023-08-07T20:17:47;8.80;;;2.20;;
10497;SDS011;5296;51.060;13.750;2023-08-07T20:22:49;5.55;;;2.50;;
10497;SDS011;5296;51.060;13.750;2023-08-07T20:27:51;7.10;;;2.45;;
10497;SDS011;5296;51.060;13.750;2023-08-07T20:32:53;6.25;;;2.30;;
10497;SDS011;5296;51.060;13.750;2023-08-07T20:37:55;7.15;;;2.53;;
10497;SDS011;5296;51.060;13.750;2023-08-07T20:42:57;6.45;;;2.35;;
10497;SDS011;5296;51.060;13.750;2023-08-07T20:48:02;6.53;;;2.45;;
10497;SDS011;5296;51.060;13.750;2023-08-07T20:53:03;2.97;;;2.03;;
10497;SDS011;5296;51.060;13.750;2023-08-07T20:58:05;5.22;;;2.20;;
10497;SDS011;5296;51.060;13.750;2023-08-07T21:03:07;4.15;;;1.90;;
10497;SDS011;5296;51.060;13.750;2023-08-07T21:08:08;5.72;;;2.03;;
10497;SDS011;5296;51.060;13.750;2023-08-07T21:13:10;3.55;;;2.17;;
10497;SDS011;5296;51.060;13.750;2023-08-07T21:18:12;3.20;;;2.00;;
10497;SDS011;5296;51.060;13.750;2023-08-07T21:23:13;4.68;;;2.10;;
10497;SDS011;5296;51.060;13.750;2023-08-07T21:28:17;6.22;;;1.85;;
10497;SDS011;5296;51.060;13.750;2023-08-07T21:33:18;2.92;;;2.00;;
10497;SDS011;5296;51.060;13.750;2023-08-07T21:38:20;2.45;;;1.63;;
10497;SDS011;5296;51.060;13.750;2023-08-07T21:43:21;5.82;;;2.20;;
10497;SDS011;5296;51.060;13.750;2023-08-07T21:48:23;4.60;;;2.03;;
10497;SDS011;5296;51.060;13.750;2023-08-07T21:53:25;4.75;;;2.47;;
10497;SDS011;5296;51.060;13.750;2023-08-07T21:58:26;4.20;;;2.50;;
10497;SDS011;5296;51.060;13.750;2023-08-07T22:03:28;4.10;;;2.15;;
10497;SDS011;5296;51.060;13.750;2023-08-07T22:08:32;3.65;;;2.35;;
10497;SDS011;5296;51.060;13.750;2023-08-07T22:13:34;3.40;;;2.17;;
10497;SDS011;5296;51.060;13.750;2023-08-07T22:18:36;5.13;;;2.17;;
10497;SDS011;5296;51.060;13.750;2023-08-07T22:23:38;3.53;;;2.03;;
10497;SDS011;5296;51.060;13.750;2023-08-07T22:28:40;2.33;;;1.95;;
10497;SDS011;5296;51.060;13.750;2023-08-07T22:33:42;3.25;;;2.03;;
10497;SDS011;5296;51.060;13.750;2023-08-07T22:38:44;4.45;;;1.85;;
10497;SDS011;5296;51.060;13.750;2023-08-07T22:43:45;3.88;;;2.15;;
10497;SDS011;5296;51.060;13.750;2023-08-07T22:48:47;3.30;;;2.00;;
10497;SDS011;5296;51.060;13.750;2023-08-07T22:53:49;4.95;;;2.05;;
10497;SDS011;5296;51.060;13.750;2023-08-07T22:58:51;3.20;;;2.00;;
10497;SDS011;5296;51.060;13.750;2023-08-07T23:03:52;2.70;;;1.90;;
10497;SDS011;5296;51.060;13.750;2023-08-07T23:08:54;3.50;;;2.10;;
10497;SDS011;5296;51.060;13.750;2023-08-07T23:13:56;2.63;;;1.98;;
10497;SDS011;5296;51.060;13.750;2023-08-07T23:18:58;4.30;;;1.90;;
10497;SDS011;5296;51.060;13.750;2023-08-07T23:23:59;3.97;;;2.17;;
10497;SDS011;5296;51.060;13.750;2023-08-07T23:29:01;3.75;;;1.88;;
10497;SDS011;5296;51.060;13.750;2023-08-07T23:34:03;4.75;;;2.13;;
10497;SDS011;5296;51.060;13.750;2023-08-07T23:39:05;5.57;;;2.33;;
10497;SDS011;5296;51.060;13.750;2023-08-07T23:44:06;3.53;;;2.15;;
10497;SDS011;5296;51.060;13.750;2023-08-07T23:49:08;3.40;;;2.30;;
10497;SDS011;5296;51.060;13.750;2023-08-07T23:54:10;2.60;;;1.90;;
10497;SDS011;5296;51.060;13.750;2023-08-07T23:59:11;4.93;;;2.20;;
